createdAt,value
2019-02-16T00:01:48.757Z,10.60
2019-02-16T00:02:48.780Z,10.43
2019-02-16T00:03:48.799Z,10.52
2019-02-16T00:04:48.816Z,10.43
2019-02-16T00:05:48.825Z,10.26
2019-02-16T00:07:48.850Z,10.42
2019-02-16T00:08:48.871Z,10.30
2019-02-16T00:09:48.891Z,10.40
2019-02-16T00:10:48.903Z,10.19
2019-02-16T00:11:48.922Z,10.36
2019-02-16T00:13:48.966Z,10.25
2019-02-16T00:14:48.961Z,10.51
2019-02-16T00:15:48.979Z,10.14
2019-02-16T00:16:49.140Z,10.21
2019-02-16T00:17:49.011Z,10.26
2019-02-16T00:19:49.080Z,10.15
2019-02-16T00:20:49.101Z,10.15
2019-02-16T00:21:49.124Z,10.18
2019-02-16T00:22:49.138Z,10.25
2019-02-16T00:23:49.144Z,10.40
2019-02-16T00:26:01.369Z,10.36
2019-02-16T00:28:01.353Z,10.03
2019-02-16T00:30:01.422Z,10.15
2019-02-16T00:31:01.411Z,10.06
2019-02-16T00:32:01.464Z,9.96
2019-02-16T00:33:01.428Z,10.03
2019-02-16T00:35:01.552Z,10.15
2019-02-16T00:36:01.528Z,10.14
2019-02-16T00:37:01.544Z,10.18
2019-02-16T00:38:01.546Z,10.15
2019-02-16T00:39:01.568Z,9.94
2019-02-16T00:40:01.589Z,10.04
2019-02-16T00:41:22.603Z,9.85
2019-02-16T00:42:01.610Z,9.97
2019-02-16T00:43:01.633Z,9.94
2019-02-16T00:44:01.639Z,9.99
2019-02-16T00:45:01.656Z,9.91
2019-02-16T00:46:01.669Z,9.76
2019-02-16T00:47:22.697Z,10.04
2019-02-16T00:48:01.702Z,9.89
2019-02-16T00:49:01.768Z,9.82
2019-02-16T00:51:48.146Z,9.83
2019-02-16T00:52:47.953Z,9.75
2019-02-16T00:54:08.967Z,9.94
2019-02-16T00:54:48.083Z,9.78
2019-02-16T00:55:47.944Z,9.76
2019-02-16T00:56:48.042Z,9.93
2019-02-16T00:58:48.221Z,9.68
2019-02-16T00:59:48.126Z,9.58
2019-02-16T01:00:48.108Z,9.60
2019-02-16T01:01:48.024Z,9.75
2019-02-16T01:02:48.052Z,9.71
2019-02-16T01:03:48.092Z,9.71
2019-02-16T01:04:48.112Z,9.82
2019-02-16T01:05:48.094Z,9.81
2019-02-16T01:07:09.122Z,9.89
2019-02-16T01:07:48.114Z,9.89
2019-02-16T01:08:48.176Z,9.83
2019-02-16T01:09:48.163Z,9.58
2019-02-16T01:10:48.171Z,9.52
2019-02-16T01:11:48.185Z,9.63
2019-02-16T01:12:48.389Z,9.70
2019-02-16T01:13:48.210Z,9.71
2019-02-16T01:14:48.226Z,9.66
2019-02-16T01:15:48.236Z,9.68
2019-02-16T01:16:48.255Z,9.57
2019-02-16T01:18:48.335Z,9.25
2019-02-16T01:19:48.316Z,9.61
2019-02-16T01:20:48.320Z,9.46
2019-02-16T01:21:48.341Z,9.67
2019-02-16T01:22:48.340Z,9.56
2019-02-16T01:23:48.367Z,9.45
2019-02-16T01:24:48.386Z,9.38
2019-02-16T01:25:48.397Z,9.34
2019-02-16T01:26:48.406Z,9.61
2019-02-16T01:27:48.419Z,9.64
2019-02-16T01:30:48.472Z,9.56
2019-02-16T01:31:48.483Z,9.49
2019-02-16T01:32:48.497Z,9.67
2019-02-16T01:33:48.526Z,9.73
2019-02-16T01:34:48.526Z,9.73
2019-02-16T01:35:48.537Z,9.66
2019-02-16T01:36:48.557Z,9.48
2019-02-16T01:37:48.592Z,9.43
2019-02-16T01:38:48.590Z,9.35
2019-02-16T01:39:48.597Z,9.27
2019-02-16T01:40:48.623Z,9.43
2019-02-16T01:41:48.626Z,9.64
2019-02-16T01:42:48.653Z,9.50
2019-02-16T01:43:48.655Z,9.12
2019-02-16T01:44:48.692Z,9.12
2019-02-16T01:46:48.707Z,8.97
2019-02-16T01:47:48.738Z,9.12
2019-02-16T01:48:48.739Z,9.30
2019-02-16T01:49:48.747Z,9.21
2019-02-16T01:50:48.758Z,9.25
2019-02-16T01:51:48.777Z,9.38
2019-02-16T01:52:48.802Z,9.56
2019-02-16T01:53:48.822Z,9.46
2019-02-16T01:54:48.826Z,9.53
2019-02-16T01:55:48.838Z,9.56
2019-02-16T01:56:48.853Z,9.58
2019-02-16T01:57:48.869Z,9.57
2019-02-16T01:59:48.890Z,9.49
2019-02-16T02:00:48.907Z,9.21
2019-02-16T02:01:48.927Z,9.13
2019-02-16T02:02:48.969Z,9.39
2019-02-16T02:03:48.978Z,9.48
2019-02-16T02:05:48.997Z,8.93
2019-02-16T02:06:49.002Z,9.23
2019-02-16T02:07:49.034Z,9.30
2019-02-16T02:08:49.034Z,9.01
2019-02-16T02:09:49.083Z,8.73
2019-02-16T02:10:49.077Z,8.86
2019-02-16T02:11:49.079Z,9.04
2019-02-16T02:12:49.090Z,8.96
2019-02-16T02:13:49.110Z,8.93
2019-02-16T02:14:49.121Z,8.81
2019-02-16T02:15:49.137Z,8.66
2019-02-16T02:16:49.148Z,8.60
2019-02-16T02:17:49.161Z,8.48
2019-02-16T02:18:49.174Z,8.66
2019-02-16T02:19:49.200Z,8.66
2019-02-16T02:21:49.252Z,8.78
2019-02-16T02:22:49.235Z,8.81
2019-02-16T02:23:49.280Z,9.21
2019-02-16T02:24:49.272Z,9.04
2019-02-16T02:25:49.278Z,9.10
2019-02-16T02:26:49.297Z,9.06
2019-02-16T02:27:49.307Z,8.81
2019-02-16T02:28:49.324Z,8.81
2019-02-16T02:29:49.339Z,8.76
2019-02-16T02:30:49.356Z,8.47
2019-02-16T02:31:49.376Z,8.60
2019-02-16T02:33:49.401Z,8.68
2019-02-16T02:34:49.424Z,8.50
2019-02-16T02:35:49.510Z,8.58
2019-02-16T02:36:49.503Z,8.90
2019-02-16T02:37:49.477Z,8.90
2019-02-16T02:38:49.470Z,8.78
2019-02-16T02:39:49.490Z,8.99
2019-02-16T02:40:49.505Z,8.65
2019-02-16T02:41:49.519Z,8.63
2019-02-16T02:42:49.534Z,8.36
2019-02-16T02:43:49.553Z,8.28
2019-02-16T02:44:49.575Z,8.50
2019-02-16T02:45:49.666Z,8.50
2019-02-16T02:46:49.590Z,8.28
2019-02-16T02:47:49.603Z,8.20
2019-02-16T02:48:49.621Z,8.40
2019-02-16T02:49:49.636Z,8.68
2019-02-16T02:50:49.663Z,8.73
2019-02-16T02:51:52.285Z,8.75
2019-02-16T02:52:49.681Z,8.90
2019-02-16T02:53:49.703Z,9.10
2019-02-16T02:54:49.707Z,8.99
2019-02-16T02:55:49.833Z,8.97
2019-02-16T02:56:49.742Z,8.84
2019-02-16T02:57:49.775Z,8.96
2019-02-16T02:58:49.771Z,8.63
2019-02-16T02:59:49.780Z,8.76
2019-02-16T03:00:49.810Z,8.90
2019-02-16T03:01:49.822Z,8.71
2019-02-16T03:03:49.844Z,8.96
2019-02-16T03:04:49.877Z,8.87
2019-02-16T03:05:49.892Z,9.05
2019-02-16T03:06:49.896Z,8.72
2019-02-16T03:07:49.893Z,8.66
2019-02-16T03:08:49.920Z,8.66
2019-02-16T03:09:49.935Z,8.35
2019-02-16T03:11:49.955Z,8.66
2019-02-16T03:12:49.977Z,8.81
2019-02-16T03:13:49.983Z,8.73
2019-02-16T03:14:49.999Z,8.69
2019-02-16T03:15:50.069Z,8.44
2019-02-16T03:16:50.032Z,8.25
2019-02-16T03:17:50.044Z,8.30
2019-02-16T03:18:50.051Z,8.26
2019-02-16T03:19:50.089Z,8.66
2019-02-16T03:20:50.091Z,8.62
2019-02-16T03:21:50.098Z,8.65
2019-02-16T03:22:50.131Z,8.60
2019-02-16T03:23:50.130Z,8.63
2019-02-16T03:24:50.143Z,8.20
2019-02-16T03:25:50.159Z,8.21
2019-02-16T03:26:50.172Z,8.11
2019-02-16T03:27:50.194Z,8.20
2019-02-16T03:28:50.200Z,8.12
2019-02-16T03:29:50.219Z,8.28
2019-02-16T03:30:50.261Z,8.40
2019-02-16T03:31:50.253Z,8.45
2019-02-16T03:32:50.265Z,8.62
2019-02-16T03:33:50.276Z,8.33
2019-02-16T03:34:50.293Z,8.21
2019-02-16T03:35:50.317Z,8.17
2019-02-16T03:37:50.327Z,7.87
2019-02-16T03:38:50.350Z,7.99
2019-02-16T03:39:50.373Z,7.96
2019-02-16T03:40:50.387Z,7.81
2019-02-16T03:41:50.397Z,8.03
2019-02-16T03:42:50.398Z,8.20
2019-02-16T03:43:50.417Z,8.18
2019-02-16T03:44:50.438Z,8.22
2019-02-16T03:45:50.441Z,8.39
2019-02-16T03:46:50.457Z,8.21
2019-02-16T03:47:50.472Z,8.35
2019-02-16T03:48:50.497Z,8.44
2019-02-16T03:49:50.499Z,8.21
2019-02-16T03:50:50.567Z,8.30
2019-02-16T03:51:50.532Z,8.21
2019-02-16T03:52:50.547Z,8.53
2019-02-16T03:53:50.575Z,8.25
2019-02-16T03:54:50.582Z,8.28
2019-02-16T03:55:50.593Z,8.28
2019-02-16T03:56:50.608Z,8.29
2019-02-16T03:57:50.616Z,8.53
2019-02-16T03:58:50.661Z,8.37
2019-02-16T03:59:50.649Z,8.51
2019-02-16T04:00:50.735Z,8.51
2019-02-16T04:02:50.689Z,8.25
2019-02-16T04:03:50.702Z,8.44
2019-02-16T04:04:50.714Z,8.55
2019-02-16T04:05:50.757Z,8.39
2019-02-16T04:06:50.748Z,8.53
2019-02-16T04:08:50.771Z,8.30
2019-02-16T04:09:50.800Z,8.17
2019-02-16T04:10:50.885Z,8.18
2019-02-16T04:11:50.816Z,8.22
2019-02-16T04:12:50.842Z,8.17
2019-02-16T04:13:50.841Z,8.00
2019-02-16T04:14:50.854Z,7.63
2019-02-16T04:15:50.891Z,7.78
2019-02-16T04:16:50.883Z,7.63
2019-02-16T04:17:50.916Z,8.10
2019-02-16T04:18:50.909Z,8.11
2019-02-16T04:19:50.927Z,8.04
2019-02-16T04:20:50.944Z,8.07
2019-02-16T04:21:50.972Z,7.63
2019-02-16T04:22:50.979Z,7.55
2019-02-16T04:23:50.990Z,7.34
2019-02-16T04:24:51.005Z,7.72
2019-02-16T04:25:51.025Z,8.02
2019-02-16T04:26:51.024Z,7.92
2019-02-16T04:27:51.042Z,8.11
2019-02-16T04:28:51.070Z,8.28
2019-02-16T04:29:51.071Z,8.28
2019-02-16T04:30:51.089Z,8.02
2019-02-16T04:32:51.117Z,7.99
2019-02-16T04:33:51.131Z,8.00
2019-02-16T04:34:51.146Z,8.03
2019-02-16T04:35:51.158Z,8.18
2019-02-16T04:36:51.167Z,8.03
2019-02-16T04:37:51.192Z,8.15
2019-02-16T04:38:51.220Z,8.10
2019-02-16T04:39:51.213Z,8.08
2019-02-16T04:40:51.241Z,8.07
2019-02-16T04:41:51.243Z,8.07
2019-02-16T04:42:51.251Z,8.11
2019-02-16T04:43:51.267Z,8.22
2019-02-16T04:44:51.287Z,8.07
2019-02-16T04:45:51.295Z,8.29
2019-02-16T04:46:51.305Z,8.03
2019-02-16T04:47:51.323Z,8.17
2019-02-16T04:48:51.359Z,7.97
2019-02-16T04:49:51.352Z,7.97
2019-02-16T04:50:51.385Z,8.22
2019-02-16T04:51:51.380Z,8.08
2019-02-16T04:52:51.392Z,8.08
2019-02-16T04:53:51.407Z,8.10
2019-02-16T04:55:51.457Z,8.20
2019-02-16T04:56:51.453Z,8.11
2019-02-16T04:57:51.472Z,8.10
2019-02-16T04:58:51.490Z,8.36
2019-02-16T04:59:51.498Z,8.07
2019-02-16T05:00:51.502Z,8.07
2019-02-16T05:01:51.522Z,8.17
2019-02-16T05:02:51.533Z,8.29
2019-02-16T05:04:51.563Z,7.74
2019-02-16T05:05:51.574Z,7.66
2019-02-16T05:06:51.584Z,7.75
2019-02-16T05:07:51.610Z,7.67
2019-02-16T05:08:51.618Z,7.60
2019-02-16T05:09:51.791Z,7.66
2019-02-16T05:10:51.638Z,7.52
2019-02-16T05:11:51.671Z,7.96
2019-02-16T05:12:51.672Z,7.92
2019-02-16T05:13:51.699Z,7.87
2019-02-16T05:14:51.708Z,7.81
2019-02-16T05:15:51.723Z,7.77
2019-02-16T05:16:51.729Z,7.62
2019-02-16T05:17:51.750Z,7.67
2019-02-16T05:18:51.756Z,7.69
2019-02-16T05:19:51.766Z,7.69
2019-02-16T05:20:51.795Z,7.59
2019-02-16T05:21:51.795Z,7.78
2019-02-16T05:22:51.881Z,7.99
2019-02-16T05:23:51.825Z,7.85
2019-02-16T05:24:51.842Z,7.96
2019-02-16T05:25:51.855Z,7.93
2019-02-16T05:26:51.881Z,8.07
2019-02-16T05:28:51.894Z,7.44
2019-02-16T05:29:51.908Z,7.12
2019-02-16T05:30:51.929Z,7.38
2019-02-16T05:31:51.935Z,7.66
2019-02-16T05:32:51.964Z,7.44
2019-02-16T05:33:51.961Z,7.56
2019-02-16T05:34:51.974Z,7.75
2019-02-16T05:35:51.994Z,7.50
2019-02-16T05:37:52.038Z,7.66
2019-02-16T05:38:52.035Z,7.79
2019-02-16T05:39:52.055Z,7.84
2019-02-16T05:40:52.067Z,7.81
2019-02-16T05:42:52.110Z,7.79
2019-02-16T05:44:13.128Z,7.71
2019-02-16T05:44:52.122Z,7.81
2019-02-16T05:45:52.134Z,7.97
2019-02-16T05:46:52.146Z,7.77
2019-02-16T05:47:52.189Z,7.63
2019-02-16T05:48:52.172Z,7.97
2019-02-16T05:49:52.183Z,7.82
2019-02-16T05:50:52.207Z,7.49
2019-02-16T05:51:52.215Z,7.63
2019-02-16T05:52:54.675Z,7.47
2019-02-16T05:53:52.239Z,7.41
2019-02-16T05:54:52.271Z,7.71
2019-02-16T05:56:52.292Z,7.09
2019-02-16T05:57:52.423Z,7.69
2019-02-16T05:58:52.309Z,7.63
2019-02-16T05:59:52.325Z,7.42
2019-02-16T06:00:52.345Z,7.35
2019-02-16T06:02:13.367Z,7.42
2019-02-16T06:02:52.366Z,7.63
2019-02-16T06:03:52.377Z,7.59
2019-02-16T06:04:52.394Z,7.34
2019-02-16T06:05:52.400Z,7.49
2019-02-16T06:06:52.427Z,7.59
2019-02-16T06:07:52.429Z,7.55
2019-02-16T06:09:13.467Z,7.67
2019-02-16T06:09:52.458Z,7.63
2019-02-16T06:10:52.478Z,7.69
2019-02-16T06:11:52.489Z,7.71
2019-02-16T06:13:13.529Z,7.78
2019-02-16T06:13:52.519Z,7.84
2019-02-16T06:14:52.522Z,7.63
2019-02-16T06:15:52.536Z,7.45
2019-02-16T06:16:52.551Z,7.81
2019-02-16T06:17:52.574Z,7.74
2019-02-16T06:18:52.581Z,7.27
2019-02-16T06:19:52.600Z,7.60
2019-02-16T06:20:52.609Z,7.49
2019-02-16T06:21:52.622Z,7.50
2019-02-16T06:22:52.672Z,7.59
2019-02-16T06:23:52.653Z,7.34
2019-02-16T06:24:52.669Z,7.26
2019-02-16T06:25:52.674Z,7.31
2019-02-16T06:26:52.695Z,7.37
2019-02-16T06:27:52.703Z,7.35
2019-02-16T06:28:52.716Z,7.41
2019-02-16T06:29:52.727Z,7.47
2019-02-16T06:30:52.738Z,7.47
2019-02-16T06:31:52.760Z,7.62
2019-02-16T06:32:52.832Z,7.67
2019-02-16T06:34:52.810Z,7.20
2019-02-16T06:35:52.810Z,7.23
2019-02-16T06:36:52.823Z,7.27
2019-02-16T06:37:52.833Z,7.58
2019-02-16T06:38:52.853Z,7.47
2019-02-16T06:39:52.873Z,7.47
2019-02-16T06:40:52.890Z,7.49
2019-02-16T06:41:52.896Z,7.34
2019-02-16T06:42:53.016Z,7.40
2019-02-16T06:44:52.948Z,7.32
2019-02-16T06:45:52.944Z,7.29
2019-02-16T06:46:52.951Z,7.04
2019-02-16T06:47:52.968Z,7.17
2019-02-16T06:48:52.984Z,7.13
2019-02-16T06:49:52.998Z,7.19
2019-02-16T06:50:53.011Z,7.15
2019-02-16T06:51:53.034Z,6.95
2019-02-16T06:52:53.037Z,7.23
2019-02-16T06:53:53.064Z,7.49
2019-02-16T06:54:53.066Z,7.35
2019-02-16T06:55:53.077Z,7.31
2019-02-16T06:56:53.095Z,6.95
2019-02-16T06:57:53.103Z,7.07
2019-02-16T06:58:53.131Z,6.95
2019-02-16T06:59:53.130Z,6.90
2019-02-16T07:00:53.149Z,7.04
2019-02-16T07:01:53.153Z,6.95
2019-02-16T07:02:53.191Z,7.12
2019-02-16T07:03:53.190Z,7.16
2019-02-16T07:04:53.241Z,7.09
2019-02-16T07:05:53.214Z,7.04
2019-02-16T07:06:53.224Z,7.40
2019-02-16T07:07:53.241Z,7.19
2019-02-16T07:08:53.256Z,7.16
2019-02-16T07:09:53.267Z,7.15
2019-02-16T07:10:53.281Z,7.09
2019-02-16T07:11:53.327Z,7.20
2019-02-16T07:12:53.327Z,7.23
2019-02-16T07:13:53.327Z,7.40
2019-02-16T07:14:53.424Z,7.50
2019-02-16T07:15:53.353Z,7.31
2019-02-16T07:17:53.373Z,7.29
2019-02-16T07:18:53.385Z,7.12
2019-02-16T07:19:53.408Z,7.32
2019-02-16T07:20:53.410Z,7.35
2019-02-16T07:21:53.455Z,7.38
2019-02-16T07:22:53.442Z,7.24
2019-02-16T07:23:53.450Z,7.04
2019-02-16T07:24:53.473Z,7.23
2019-02-16T07:25:53.492Z,7.29
2019-02-16T07:26:53.500Z,7.19
2019-02-16T07:27:53.520Z,6.97
2019-02-16T07:28:53.518Z,6.94
2019-02-16T07:29:53.537Z,7.13
2019-02-16T07:30:53.547Z,7.22
2019-02-16T07:31:53.566Z,7.23
2019-02-16T07:32:53.578Z,7.24
2019-02-16T07:33:53.589Z,7.07
2019-02-16T07:34:53.600Z,7.08
2019-02-16T07:35:53.636Z,7.16
2019-02-16T07:36:53.637Z,7.24
2019-02-16T07:37:53.703Z,7.32
2019-02-16T07:38:53.652Z,7.37
2019-02-16T07:39:53.670Z,7.37
2019-02-16T07:40:53.700Z,7.16
2019-02-16T07:41:53.694Z,7.04
2019-02-16T07:42:53.710Z,7.27
2019-02-16T07:43:53.737Z,7.22
2019-02-16T07:44:53.760Z,7.13
2019-02-16T07:45:53.746Z,6.94
2019-02-16T07:46:53.771Z,6.90
2019-02-16T07:47:53.844Z,7.05
2019-02-16T07:48:53.788Z,7.07
2019-02-16T07:49:53.802Z,7.13
2019-02-16T07:50:53.821Z,7.23
2019-02-16T07:51:53.834Z,7.07
2019-02-16T07:52:53.850Z,7.29
2019-02-16T07:53:53.855Z,7.31
2019-02-16T07:54:53.881Z,7.38
2019-02-16T07:55:53.908Z,7.42
2019-02-16T07:56:53.914Z,7.42
2019-02-16T07:57:53.915Z,7.32
2019-02-16T07:58:53.933Z,7.38
2019-02-16T07:59:53.943Z,7.29
2019-02-16T08:00:53.959Z,7.20
2019-02-16T08:01:53.973Z,7.24
2019-02-16T08:02:53.979Z,7.44
2019-02-16T08:03:54.002Z,7.35
2019-02-16T08:04:54.034Z,7.81
2019-02-16T08:05:54.022Z,8.04
2019-02-16T08:06:54.042Z,8.07
2019-02-16T08:07:54.085Z,8.28
2019-02-16T08:08:54.065Z,8.53
2019-02-16T08:09:54.085Z,8.22
2019-02-16T08:10:54.091Z,8.25
2019-02-16T08:11:54.108Z,8.57
2019-02-16T08:12:54.193Z,8.71
2019-02-16T08:13:54.137Z,9.13
2019-02-16T08:14:54.147Z,8.88
2019-02-16T08:15:54.179Z,8.75
2019-02-16T08:16:54.181Z,8.81
2019-02-16T08:17:54.205Z,8.97
2019-02-16T08:18:54.222Z,8.91
2019-02-16T08:19:54.228Z,8.88
2019-02-16T08:20:54.248Z,9.30
2019-02-16T08:21:54.268Z,9.24
2019-02-16T08:22:54.333Z,9.49
2019-02-16T08:23:54.300Z,9.43
2019-02-16T08:24:54.311Z,9.18
2019-02-16T08:25:54.321Z,9.35
2019-02-16T08:26:54.345Z,9.15
2019-02-16T08:27:54.359Z,9.39
2019-02-16T08:28:54.381Z,9.49
2019-02-16T08:29:54.387Z,9.81
2019-02-16T08:30:54.400Z,9.78
2019-02-16T08:31:54.416Z,9.78
2019-02-16T08:32:54.464Z,10.28
2019-02-16T08:33:54.993Z,10.28
2019-02-16T08:34:54.488Z,10.40
2019-02-16T08:35:54.490Z,10.26
2019-02-16T08:36:54.516Z,10.09
2019-02-16T08:37:54.585Z,10.19
2019-02-16T08:38:54.579Z,10.06
2019-02-16T08:39:54.569Z,10.25
2019-02-16T08:40:54.592Z,10.22
2019-02-16T08:41:54.613Z,10.40
2019-02-16T08:42:54.606Z,10.58
2019-02-16T08:43:54.631Z,10.81
2019-02-16T08:44:54.712Z,11.21
2019-02-16T08:45:54.666Z,11.09
2019-02-16T08:46:54.690Z,10.80
2019-02-16T08:47:54.705Z,11.06
2019-02-16T08:48:54.721Z,11.24
2019-02-16T08:49:54.735Z,11.10
2019-02-16T08:50:54.755Z,11.31
2019-02-16T08:51:54.769Z,11.29
2019-02-16T08:52:54.786Z,11.17
2019-02-16T08:53:54.815Z,11.62
2019-02-16T08:54:54.949Z,11.82
2019-02-16T08:55:54.844Z,11.77
2019-02-16T08:56:54.866Z,11.96
2019-02-16T08:57:54.880Z,12.20
2019-02-16T08:58:54.904Z,12.38
2019-02-16T08:59:54.917Z,12.46
2019-02-16T09:00:54.942Z,12.69
2019-02-16T09:01:54.961Z,12.44
2019-02-16T09:02:55.027Z,12.78
2019-02-16T09:03:54.990Z,12.70
2019-02-16T09:04:55.012Z,12.99
2019-02-16T09:05:55.037Z,13.02
2019-02-16T09:06:55.047Z,13.06
2019-02-16T09:07:55.063Z,12.67
2019-02-16T09:08:55.082Z,12.42
2019-02-16T09:09:55.106Z,12.89
2019-02-16T09:10:55.117Z,13.69
2019-02-16T09:11:55.133Z,14.02
2019-02-16T09:12:55.167Z,14.32
2019-02-16T09:13:55.178Z,14.24
2019-02-16T09:14:55.223Z,14.94
2019-02-16T09:15:55.223Z,15.06
2019-02-16T09:16:55.246Z,15.82
2019-02-16T09:17:55.250Z,15.70
2019-02-16T09:18:55.306Z,16.16
2019-02-16T09:19:55.302Z,16.63
2019-02-16T09:20:55.333Z,17.71
2019-02-16T09:21:55.335Z,18.39
2019-02-16T09:22:55.354Z,18.57
2019-02-16T09:23:59.084Z,18.84
2019-02-16T09:24:55.406Z,18.86
2019-02-16T09:25:55.416Z,18.52
2019-02-16T09:27:55.467Z,19.61
2019-02-16T09:28:55.491Z,19.53
2019-02-16T09:29:55.502Z,18.21
2019-02-16T09:30:55.521Z,15.96
2019-02-16T09:31:55.643Z,15.09
2019-02-16T09:32:55.575Z,15.97
2019-02-16T09:33:55.589Z,18.13
2019-02-16T09:34:55.605Z,18.64
2019-02-16T09:35:55.626Z,18.97
2019-02-16T09:36:55.754Z,17.57
2019-02-16T09:37:55.672Z,16.31
2019-02-16T09:38:55.693Z,15.42
2019-02-16T09:39:55.725Z,14.65
2019-02-16T09:40:55.745Z,14.29
2019-02-16T09:41:55.750Z,13.94
2019-02-16T09:42:55.789Z,14.19
2019-02-16T09:43:55.794Z,14.39
2019-02-16T09:44:55.820Z,14.60
2019-02-16T09:45:55.836Z,15.21
2019-02-16T09:46:55.899Z,15.09
2019-02-16T09:47:55.882Z,15.63
2019-02-16T09:48:55.902Z,15.94
2019-02-16T09:49:55.926Z,15.74
2019-02-16T09:50:55.945Z,14.90
2019-02-16T09:51:55.957Z,14.38
2019-02-16T09:52:55.979Z,13.65
2019-02-16T09:53:56.129Z,13.54
2019-02-16T09:54:56.022Z,13.40
2019-02-16T09:55:56.037Z,13.04
2019-02-16T09:56:56.065Z,13.15
2019-02-16T09:57:56.103Z,13.51
2019-02-16T09:58:56.116Z,14.28
2019-02-16T09:59:56.118Z,14.91
2019-02-16T10:00:56.148Z,15.35
2019-02-16T10:01:56.157Z,15.70
2019-02-16T10:02:56.179Z,16.09
2019-02-16T10:03:56.220Z,16.31
2019-02-16T10:04:56.216Z,16.06
2019-02-16T10:05:56.239Z,16.16
2019-02-16T10:06:56.265Z,16.11
2019-02-16T10:07:56.277Z,16.26
2019-02-16T10:08:56.302Z,16.53
2019-02-16T10:09:56.328Z,16.92
2019-02-16T10:10:56.360Z,17.10
2019-02-16T10:11:56.367Z,17.66
2019-02-16T10:12:56.382Z,17.82
2019-02-16T10:13:56.436Z,18.46
2019-02-16T10:14:56.423Z,19.48
2019-02-16T10:15:56.471Z,19.54
2019-02-16T10:16:56.463Z,19.94
2019-02-16T10:17:56.481Z,20.58
2019-02-16T10:18:56.506Z,20.23
2019-02-16T10:19:56.539Z,19.06
2019-02-16T10:20:56.557Z,17.78
2019-02-16T10:21:56.592Z,16.68
2019-02-16T10:22:56.599Z,16.53
2019-02-16T10:23:56.649Z,16.93
2019-02-16T10:24:56.640Z,16.89
2019-02-16T10:25:56.693Z,16.85
2019-02-16T10:26:56.701Z,16.38
2019-02-16T10:27:56.713Z,15.89
2019-02-16T10:28:56.737Z,15.52
2019-02-16T10:29:56.744Z,15.26
2019-02-16T10:30:56.769Z,15.36
2019-02-16T10:31:56.788Z,15.59
2019-02-16T10:32:56.809Z,15.86
2019-02-16T10:33:56.830Z,16.70
2019-02-16T10:34:56.845Z,18.00
2019-02-16T10:35:56.934Z,19.32
2019-02-16T10:36:56.899Z,20.51
2019-02-16T10:37:56.946Z,20.64
2019-02-16T10:38:56.938Z,20.89
2019-02-16T10:39:56.954Z,21.74
2019-02-16T10:40:56.972Z,22.27
2019-02-16T10:41:56.989Z,22.32
2019-02-16T10:42:57.025Z,21.74
2019-02-16T10:43:57.032Z,21.90
2019-02-16T10:44:57.074Z,21.82
2019-02-16T10:45:57.071Z,22.02
2019-02-16T10:46:57.099Z,21.19
2019-02-16T10:47:57.117Z,20.28
2019-02-16T10:48:57.134Z,20.49
2019-02-16T10:49:57.159Z,21.30
2019-02-16T10:50:57.170Z,22.16
2019-02-16T10:51:57.209Z,22.65
2019-02-16T10:52:57.247Z,22.01
2019-02-16T10:53:57.250Z,22.27
2019-02-16T10:54:57.267Z,21.79
2019-02-16T10:55:57.276Z,21.91
2019-02-16T10:56:57.303Z,21.54
2019-02-16T10:57:57.314Z,21.36
2019-02-16T10:58:57.338Z,22.47
2019-02-16T10:59:57.360Z,23.65
2019-02-16T11:00:57.380Z,24.05
2019-02-16T11:01:57.404Z,24.68
2019-02-16T11:02:57.561Z,25.49
2019-02-16T11:03:57.445Z,25.44
2019-02-16T11:04:57.463Z,25.71
2019-02-16T11:05:57.481Z,25.20
2019-02-16T11:06:57.506Z,25.09
2019-02-16T11:07:57.529Z,25.35
2019-02-16T11:08:57.556Z,25.32
2019-02-16T11:09:57.578Z,25.06
2019-02-16T11:11:57.616Z,22.01
2019-02-16T11:12:57.665Z,20.84
2019-02-16T11:13:57.655Z,19.80
2019-02-16T11:14:57.670Z,19.43
2019-02-16T11:16:57.769Z,18.76
2019-02-16T11:17:57.753Z,18.36
2019-02-16T11:18:57.758Z,18.00
2019-02-16T11:19:57.782Z,17.91
2019-02-16T11:20:57.815Z,17.92
2019-02-16T11:21:59.846Z,17.95
2019-02-16T11:22:57.849Z,17.78
2019-02-16T11:23:57.887Z,17.53
2019-02-16T11:24:57.944Z,17.54
2019-02-16T11:25:57.910Z,17.36
2019-02-16T11:26:57.934Z,17.47
2019-02-16T11:27:57.954Z,17.53
2019-02-16T11:28:57.979Z,17.43
2019-02-16T11:29:57.998Z,17.43
2019-02-16T11:30:58.020Z,17.43
2019-02-16T11:31:58.038Z,17.29
2019-02-16T11:32:58.084Z,17.26
2019-02-16T11:33:58.094Z,17.32
2019-02-16T11:34:58.129Z,17.32
2019-02-16T11:35:58.168Z,17.35
2019-02-16T11:36:58.164Z,17.41
2019-02-16T11:37:58.174Z,17.38
2019-02-16T11:38:58.202Z,17.44
2019-02-16T11:39:58.237Z,17.33
2019-02-16T11:40:58.244Z,17.46
2019-02-16T11:41:58.402Z,17.62
2019-02-16T11:42:58.303Z,17.43
2019-02-16T11:43:58.322Z,17.35
2019-02-16T11:44:58.344Z,17.43
2019-02-16T11:45:58.374Z,17.36
2019-02-16T11:46:58.393Z,17.41
2019-02-16T11:47:58.430Z,17.55
2019-02-16T11:48:58.443Z,17.74
2019-02-16T11:49:58.480Z,17.85
2019-02-16T11:50:58.509Z,17.95
2019-02-16T11:51:58.592Z,18.00
2019-02-16T11:52:58.557Z,17.78
2019-02-16T11:53:58.588Z,18.12
2019-02-16T11:54:58.621Z,18.07
2019-02-16T11:56:58.685Z,18.18
2019-02-16T11:57:58.690Z,18.06
2019-02-16T11:58:58.769Z,17.97
2019-02-16T11:59:58.750Z,18.17
2019-02-16T12:00:58.784Z,18.37
2019-02-16T12:01:58.830Z,18.42
2019-02-16T12:02:58.859Z,18.43
2019-02-16T12:03:58.871Z,18.55
2019-02-16T12:04:58.881Z,18.57
2019-02-16T12:05:58.911Z,18.42
2019-02-16T12:07:58.959Z,18.52
2019-02-16T12:08:59.006Z,18.43
2019-02-16T12:09:59.022Z,19.31
2019-02-16T12:10:59.083Z,21.42
2019-02-16T12:11:59.074Z,23.53
2019-02-16T12:12:59.095Z,25.47
2019-02-16T12:13:59.144Z,25.47
2019-02-16T12:14:59.163Z,25.94
2019-02-16T12:16:00.000Z,26.65
2019-02-16T12:16:59.192Z,25.50
2019-02-16T12:17:59.229Z,23.40
2019-02-16T12:18:59.251Z,21.57
2019-02-16T12:19:59.298Z,20.65
2019-02-16T12:20:59.357Z,20.06
2019-02-16T12:21:59.345Z,19.50
2019-02-16T12:22:59.347Z,19.17
2019-02-16T12:23:59.371Z,19.06
2019-02-16T12:25:05.739Z,18.97
2019-02-16T12:25:59.415Z,18.83
2019-02-16T12:26:59.439Z,18.74
2019-02-16T12:27:59.462Z,18.62
2019-02-16T12:28:59.494Z,18.58
2019-02-16T12:29:59.509Z,18.55
2019-02-16T12:30:59.535Z,18.52
2019-02-16T12:31:59.562Z,18.49
2019-02-16T12:32:59.578Z,18.50
2019-02-16T12:33:59.596Z,18.39
2019-02-16T12:34:59.626Z,18.49
2019-02-16T12:35:59.644Z,18.40
2019-02-16T12:36:59.668Z,18.43
2019-02-16T12:37:59.816Z,18.21
2019-02-16T12:39:04.911Z,18.28
2019-02-16T12:39:59.741Z,18.03
2019-02-16T12:40:59.756Z,18.10
2019-02-16T12:41:59.785Z,18.04
2019-02-16T12:42:59.821Z,17.88
2019-02-16T12:43:59.831Z,18.00
2019-02-16T12:44:59.868Z,17.82
2019-02-16T12:45:59.870Z,17.64
2019-02-16T12:46:59.894Z,17.81
2019-02-16T12:47:59.956Z,17.92
2019-02-16T12:48:59.942Z,17.82
2019-02-16T12:49:59.962Z,17.82
2019-02-16T12:50:59.990Z,17.76
2019-02-16T12:52:00.007Z,17.79
2019-02-16T12:53:00.026Z,17.94
2019-02-16T12:54:00.054Z,17.84
2019-02-16T12:55:00.312Z,17.76
2019-02-16T12:56:00.089Z,17.97
2019-02-16T12:57:00.130Z,17.95
2019-02-16T12:58:00.172Z,17.92
2019-02-16T12:59:00.161Z,17.94
2019-02-16T13:00:00.320Z,17.95
2019-02-16T13:01:00.202Z,17.84
2019-02-16T13:02:00.225Z,17.91
2019-02-16T13:03:00.250Z,17.88
2019-02-16T13:04:00.274Z,17.99
2019-02-16T13:05:00.308Z,17.91
2019-02-16T13:06:00.315Z,17.89
2019-02-16T13:07:00.335Z,17.87
2019-02-16T13:08:00.390Z,17.82
2019-02-16T13:10:00.406Z,17.88
2019-02-16T13:11:00.428Z,17.89
2019-02-16T13:12:00.456Z,17.94
2019-02-16T13:13:00.481Z,17.84
2019-02-16T13:14:00.499Z,17.85
2019-02-16T13:15:00.514Z,18.09
2019-02-16T13:16:00.535Z,18.02
2019-02-16T13:17:00.553Z,18.00
2019-02-16T13:18:00.594Z,18.12
2019-02-16T13:19:00.595Z,18.04
2019-02-16T13:20:00.622Z,18.06
2019-02-16T13:21:00.643Z,18.04
2019-02-16T13:22:00.663Z,18.03
2019-02-16T13:23:00.688Z,18.04
2019-02-16T13:24:00.709Z,18.06
2019-02-16T13:25:00.741Z,17.97
2019-02-16T13:26:00.749Z,17.85
2019-02-16T13:27:00.859Z,17.88
2019-02-16T13:28:00.791Z,17.71
2019-02-16T13:29:00.830Z,17.57
2019-02-16T13:30:00.842Z,17.50
2019-02-16T13:31:00.859Z,17.53
2019-02-16T13:32:00.887Z,17.66
2019-02-16T13:34:00.940Z,17.84
2019-02-16T13:35:00.950Z,17.78
2019-02-16T13:36:00.970Z,17.79
2019-02-16T13:37:01.047Z,17.82
2019-02-16T13:39:01.039Z,17.76
2019-02-16T13:40:01.055Z,17.79
2019-02-16T13:41:01.086Z,17.81
2019-02-16T13:42:01.108Z,17.85
2019-02-16T13:43:01.129Z,17.78
2019-02-16T13:44:01.155Z,17.84
2019-02-16T13:45:01.171Z,17.84
2019-02-16T13:46:01.192Z,17.74
2019-02-16T13:48:01.245Z,17.76
2019-02-16T13:50:01.346Z,17.82
2019-02-16T13:51:01.337Z,17.79
2019-02-16T13:52:01.365Z,17.84